createdAt,value
2019-02-28T00:01:52.757Z,13.53
2019-02-28T00:04:21.003Z,15.28
2019-02-28T00:06:49.424Z,16.12
2019-02-28T00:09:17.668Z,16.70
2019-02-28T00:11:44.607Z,14.98
2019-02-28T00:14:12.815Z,16.97
2019-02-28T00:16:41.310Z,16.35
2019-02-28T00:19:12.251Z,16.70
2019-02-28T00:21:40.567Z,18.12
2019-02-28T00:24:09.636Z,15.38
2019-02-28T00:26:37.791Z,14.70
2019-02-28T00:29:06.012Z,16.85
2019-02-28T00:31:34.619Z,15.55
2019-02-28T00:34:05.476Z,16.12
2019-02-28T00:36:32.417Z,17.65
2019-02-28T00:39:03.924Z,16.67
2019-02-28T00:41:31.108Z,17.05
2019-02-28T00:43:58.327Z,15.53
2019-02-28T00:46:26.510Z,17.35
2019-02-28T00:48:54.833Z,15.80
2019-02-28T00:51:23.886Z,17.70
2019-02-28T00:53:52.083Z,17.00
2019-02-28T00:56:20.318Z,16.32
2019-02-28T00:58:48.581Z,16.48
2019-02-28T01:01:16.882Z,16.90
2019-02-28T01:03:44.554Z,18.12
2019-02-28T01:06:13.166Z,17.05
2019-02-28T01:08:41.438Z,16.77
2019-02-28T01:11:10.378Z,15.88
2019-02-28T01:13:38.640Z,17.32
2019-02-28T01:16:07.206Z,16.45
2019-02-28T01:18:36.174Z,18.62
2019-02-28T01:21:04.487Z,20.15
2019-02-28T01:23:33.062Z,17.50
2019-02-28T01:26:01.649Z,17.07
2019-02-28T01:28:30.429Z,19.70
2019-02-28T01:30:57.599Z,20.00
2019-02-28T01:33:30.625Z,20.82
2019-02-28T01:35:58.222Z,20.95
2019-02-28T01:38:27.208Z,21.77
2019-02-28T01:40:55.454Z,22.13
2019-02-28T01:43:28.508Z,21.87
2019-02-28T01:45:54.678Z,22.30
2019-02-28T01:48:23.727Z,21.82
2019-02-28T01:53:42.423Z,23.18
2019-02-28T01:56:10.544Z,24.32
2019-02-28T01:58:38.083Z,24.02
2019-02-28T02:01:05.273Z,24.75
2019-02-28T02:03:32.831Z,24.75
2019-02-28T02:06:00.149Z,25.35
2019-02-28T02:08:27.609Z,25.17
2019-02-28T02:10:56.127Z,25.50
2019-02-28T02:13:23.663Z,25.12
2019-02-28T02:15:52.095Z,25.35
2019-02-28T02:18:19.898Z,26.33
2019-02-28T02:20:47.390Z,26.48
2019-02-28T02:23:17.834Z,25.68
2019-02-28T02:25:44.673Z,23.42
2019-02-28T02:28:12.838Z,23.85
2019-02-28T02:30:40.599Z,25.35
2019-02-28T02:33:13.621Z,24.63
2019-02-28T02:35:42.247Z,25.68
2019-02-28T02:38:06.587Z,24.65
2019-02-28T02:40:33.869Z,23.38
2019-02-28T02:43:01.420Z,24.60
2019-02-28T02:45:28.663Z,26.17
2019-02-28T02:47:56.037Z,23.27
2019-02-28T02:50:23.652Z,24.12
2019-02-28T02:52:51.999Z,25.37
2019-02-28T02:55:20.194Z,24.60
2019-02-28T02:57:51.674Z,24.07
2019-02-28T03:00:18.791Z,23.90
2019-02-28T03:02:47.008Z,25.92
2019-02-28T03:05:15.335Z,25.88
2019-02-28T03:07:43.637Z,26.90
2019-02-28T03:10:17.514Z,26.95
2019-02-28T03:12:42.922Z,26.70
2019-02-28T03:15:12.228Z,27.77
2019-02-28T03:17:46.540Z,28.60
2019-02-28T03:20:10.966Z,28.17
2019-02-28T03:22:39.173Z,28.30
2019-02-28T03:25:08.345Z,28.52
2019-02-28T03:27:36.783Z,26.95
2019-02-28T03:30:06.791Z,28.02
2019-02-28T03:32:41.850Z,27.52
2019-02-28T03:35:05.679Z,27.42
2019-02-28T03:37:34.614Z,27.70
2019-02-28T03:40:05.191Z,24.67
2019-02-28T03:42:34.047Z,26.70
2019-02-28T03:45:02.602Z,26.42
2019-02-28T03:47:30.824Z,27.13
2019-02-28T03:49:59.874Z,27.30
2019-02-28T03:52:28.962Z,26.85
2019-02-28T03:54:56.374Z,27.62
2019-02-28T03:57:29.438Z,28.27
2019-02-28T03:59:56.699Z,29.23
2019-02-28T04:02:25.766Z,27.62
2019-02-28T04:04:53.119Z,26.10
2019-02-28T04:07:21.338Z,28.05
2019-02-28T04:09:49.491Z,28.95
2019-02-28T04:12:17.785Z,29.18
2019-02-28T04:14:46.098Z,26.90
2019-02-28T04:17:13.301Z,27.45
2019-02-28T04:19:41.791Z,28.25
2019-02-28T04:22:10.183Z,28.90
2019-02-28T04:24:39.241Z,28.27
2019-02-28T04:27:08.307Z,28.47
2019-02-28T04:29:37.336Z,26.75
2019-02-28T04:32:05.691Z,28.05
2019-02-28T04:34:34.498Z,29.35
2019-02-28T04:37:01.507Z,28.05
2019-02-28T04:39:30.631Z,27.80
2019-02-28T04:41:59.467Z,29.05
2019-02-28T04:44:27.368Z,28.77
2019-02-28T04:46:55.884Z,26.73
2019-02-28T04:49:24.733Z,29.35
2019-02-28T04:51:51.954Z,28.55
2019-02-28T04:54:20.125Z,28.32
2019-02-28T04:56:48.430Z,28.52
2019-02-28T04:59:15.506Z,30.88
2019-02-28T05:01:45.239Z,30.48
2019-02-28T05:04:14.078Z,29.70
2019-02-28T05:06:42.260Z,29.57
2019-02-28T05:09:10.765Z,29.37
2019-02-28T05:11:40.590Z,31.05
2019-02-28T05:14:08.771Z,30.70
2019-02-28T05:16:36.978Z,30.95
2019-02-28T05:19:04.046Z,31.37
2019-02-28T05:21:32.270Z,31.15
2019-02-28T05:24:00.364Z,32.63
2019-02-28T05:26:28.838Z,32.95
2019-02-28T05:28:57.177Z,32.42
2019-02-28T05:31:27.099Z,34.58
2019-02-28T05:33:54.446Z,33.75
2019-02-28T05:36:22.610Z,34.40
2019-02-28T05:38:53.534Z,34.13
2019-02-28T05:41:20.259Z,34.25
2019-02-28T05:43:47.463Z,31.35
2019-02-28T05:46:15.931Z,34.18
2019-02-28T05:48:44.605Z,35.30
2019-02-28T05:51:12.875Z,34.45
2019-02-28T05:53:42.483Z,36.10
2019-02-28T05:56:11.024Z,35.45
2019-02-28T05:58:39.002Z,35.78
2019-02-28T06:01:08.759Z,36.42
2019-02-28T06:03:37.382Z,36.55
2019-02-28T06:06:08.107Z,36.48
2019-02-28T06:08:39.044Z,38.67
2019-02-28T06:11:06.598Z,39.83
2019-02-28T06:13:37.002Z,40.80
2019-02-28T06:16:04.503Z,40.40
2019-02-28T06:18:33.434Z,38.48
2019-02-28T06:21:01.793Z,39.50
2019-02-28T06:23:30.162Z,40.25
2019-02-28T06:25:59.259Z,39.67
2019-02-28T06:28:31.124Z,42.43
2019-02-28T06:31:00.147Z,39.33
2019-02-28T06:33:27.294Z,40.50
2019-02-28T06:35:54.977Z,43.00
2019-02-28T06:38:23.157Z,40.60
2019-02-28T06:40:56.110Z,44.58
2019-02-28T06:43:23.365Z,42.30
2019-02-28T06:45:51.993Z,45.28
2019-02-28T06:48:25.950Z,43.35
2019-02-28T06:50:51.063Z,41.53
2019-02-28T06:53:19.300Z,42.93
2019-02-28T06:55:48.158Z,44.93
2019-02-28T06:58:16.708Z,43.95
2019-02-28T07:00:47.396Z,43.15
2019-02-28T07:03:15.585Z,43.45
2019-02-28T07:05:44.207Z,45.50
2019-02-28T07:08:13.414Z,44.63
2019-02-28T07:10:41.565Z,44.55
2019-02-28T07:13:11.851Z,45.83
2019-02-28T07:15:40.595Z,44.67
2019-02-28T07:18:09.717Z,43.65
2019-02-28T07:20:37.270Z,43.95
2019-02-28T07:23:05.839Z,45.55
2019-02-28T07:25:34.840Z,44.27
2019-02-28T07:28:02.531Z,43.70
2019-02-28T07:30:31.106Z,44.42
2019-02-28T07:32:59.967Z,46.10
2019-02-28T07:35:32.685Z,43.33
2019-02-28T07:37:59.264Z,44.55
2019-02-28T07:40:27.826Z,45.83
2019-02-28T07:42:56.554Z,44.95
2019-02-28T07:45:25.543Z,41.98
2019-02-28T07:47:53.372Z,42.95
2019-02-28T07:50:21.810Z,44.33
2019-02-28T07:52:50.309Z,41.30
2019-02-28T07:55:18.759Z,42.70
2019-02-28T07:57:51.265Z,42.95
2019-02-28T08:00:18.570Z,41.83
2019-02-28T08:02:48.704Z,41.55
2019-02-28T08:05:17.707Z,42.13
2019-02-28T08:07:50.279Z,42.55
2019-02-28T08:10:17.937Z,41.92
2019-02-28T08:12:46.729Z,42.17
2019-02-28T08:15:22.293Z,42.00
2019-02-28T08:17:49.228Z,42.17
2019-02-28T08:20:19.758Z,42.17
2019-02-28T08:22:46.928Z,41.50
2019-02-28T08:25:15.626Z,39.15
2019-02-28T08:27:44.614Z,40.10
2019-02-28T08:30:16.258Z,41.45
2019-02-28T08:32:47.157Z,40.58
2019-02-28T08:35:15.863Z,41.13
2019-02-28T08:37:45.047Z,41.77
2019-02-28T08:40:15.633Z,41.83
2019-02-28T08:42:49.954Z,39.95
2019-02-28T08:45:18.590Z,43.42
2019-02-28T08:47:48.118Z,40.40
2019-02-28T08:50:20.661Z,40.83
2019-02-28T08:52:53.473Z,41.58
2019-02-28T08:55:28.394Z,43.65
2019-02-28T08:57:54.741Z,41.53
2019-02-28T09:00:22.835Z,41.18
2019-02-28T09:02:56.026Z,41.73
2019-02-28T09:05:26.352Z,43.38
2019-02-28T09:07:53.310Z,38.53
2019-02-28T09:10:21.803Z,39.78
2019-02-28T09:12:50.120Z,40.43
2019-02-28T09:15:19.949Z,38.23
2019-02-28T09:17:48.287Z,39.80
2019-02-28T09:20:16.879Z,40.23
2019-02-28T09:22:45.638Z,39.92
2019-02-28T09:25:14.026Z,39.83
2019-02-28T09:27:45.819Z,38.83
2019-02-28T09:30:29.680Z,38.08
2019-02-28T09:32:57.679Z,37.50
2019-02-28T09:35:28.324Z,36.75
2019-02-28T09:37:56.238Z,38.63
2019-02-28T09:40:25.667Z,38.73
2019-02-28T09:42:54.228Z,37.88
2019-02-28T09:45:27.158Z,37.88
2019-02-28T09:47:54.258Z,38.63
2019-02-28T09:50:22.596Z,37.63
2019-02-28T09:52:50.628Z,40.23
2019-02-28T09:55:19.165Z,41.08
2019-02-28T09:57:47.022Z,40.50
2019-02-28T10:00:20.070Z,40.10
2019-02-28T10:02:47.283Z,39.50
2019-02-28T10:05:14.518Z,38.60
2019-02-28T10:07:42.821Z,39.33
2019-02-28T10:10:20.813Z,39.25
2019-02-28T10:12:48.010Z,37.63
2019-02-28T10:15:16.643Z,37.23
2019-02-28T10:17:43.856Z,39.05
2019-02-28T10:20:16.858Z,36.48
2019-02-28T10:22:47.333Z,36.10
2019-02-28T10:25:16.346Z,34.60
2019-02-28T10:27:44.546Z,34.20
2019-02-28T10:30:17.325Z,31.07
2019-02-28T10:32:55.180Z,28.00
2019-02-28T10:35:23.165Z,26.13
2019-02-28T10:37:57.107Z,27.10
2019-02-28T10:40:22.504Z,26.55
2019-02-28T10:42:51.955Z,26.50
2019-02-28T10:45:19.846Z,28.30
2019-02-28T10:47:48.326Z,27.53
2019-02-28T10:50:18.610Z,26.37
2019-02-28T10:52:46.898Z,25.50
2019-02-28T10:55:19.500Z,27.43
2019-02-28T10:57:47.781Z,26.73
2019-02-28T11:00:22.217Z,25.87
2019-02-28T11:02:53.559Z,26.73
2019-02-28T11:05:24.820Z,26.17
2019-02-28T11:07:53.693Z,26.60
2019-02-28T11:10:21.602Z,25.20
2019-02-28T11:12:50.757Z,25.27
2019-02-28T11:15:23.705Z,26.73
2019-02-28T11:17:52.457Z,25.37
2019-02-28T11:20:22.298Z,26.17
2019-02-28T11:22:51.663Z,26.03
2019-02-28T11:25:34.656Z,26.13
2019-02-28T11:28:00.093Z,26.03
2019-02-28T11:30:27.866Z,26.10
2019-02-28T11:32:55.107Z,25.63
2019-02-28T11:35:23.167Z,26.20
2019-02-28T11:37:58.433Z,23.73
2019-02-28T11:40:28.842Z,24.20
2019-02-28T11:42:59.465Z,24.83
2019-02-28T11:45:27.495Z,26.23
2019-02-28T11:48:01.238Z,25.60
2019-02-28T11:50:29.033Z,24.53
2019-02-28T11:53:03.115Z,26.23
2019-02-28T11:55:28.572Z,25.57
2019-02-28T11:57:57.318Z,25.17
2019-02-28T12:00:32.510Z,24.97
2019-02-28T12:03:00.702Z,25.70
2019-02-28T12:05:28.910Z,25.87
2019-02-28T12:07:56.774Z,23.40
2019-02-28T12:10:31.090Z,24.73
2019-02-28T12:12:58.314Z,25.90
2019-02-28T12:15:26.858Z,25.93
2019-02-28T12:17:55.614Z,24.97
2019-02-28T12:20:26.576Z,24.90
2019-02-28T12:22:55.702Z,26.23
2019-02-28T12:25:23.909Z,25.87
2019-02-28T12:27:52.651Z,24.77
2019-02-28T12:30:25.223Z,25.87
2019-02-28T12:32:59.098Z,24.30
2019-02-28T12:35:27.379Z,25.87
2019-02-28T12:37:55.550Z,25.30
2019-02-28T12:40:26.299Z,25.37
2019-02-28T12:42:55.139Z,26.03
2019-02-28T12:45:27.242Z,25.27
2019-02-28T12:47:54.778Z,25.43
2019-02-28T12:50:22.487Z,26.83
2019-02-28T12:52:51.870Z,25.77
2019-02-28T12:55:19.399Z,28.13
2019-02-28T12:57:48.732Z,26.00
2019-02-28T13:00:23.408Z,28.77
2019-02-28T13:02:51.932Z,25.47
2019-02-28T13:05:20.010Z,29.10
2019-02-28T13:07:53.938Z,29.07
2019-02-28T13:10:26.770Z,27.63
2019-02-28T13:12:51.062Z,28.37
2019-02-28T13:15:18.358Z,30.57
2019-02-28T13:17:45.558Z,31.20
2019-02-28T13:20:17.156Z,30.80
2019-02-28T13:22:45.827Z,32.10
2019-02-28T13:25:14.049Z,33.63
2019-02-28T13:27:45.240Z,33.13
2019-02-28T13:30:20.107Z,33.90
2019-02-28T13:32:49.380Z,35.07
2019-02-28T13:35:22.746Z,36.50
2019-02-28T13:37:50.546Z,37.17
2019-02-28T13:40:22.060Z,36.53
2019-02-28T13:42:49.442Z,38.63
2019-02-28T13:45:23.155Z,38.97
2019-02-28T13:47:47.812Z,41.43
2019-02-28T13:50:21.843Z,41.60
2019-02-28T13:52:53.499Z,44.17
2019-02-28T13:55:21.170Z,43.13
2019-02-28T13:57:49.338Z,42.60
2019-02-28T14:00:23.082Z,41.47
2019-02-28T14:03:02.007Z,40.93
2019-02-28T14:05:29.510Z,41.53
2019-02-28T14:07:56.990Z,40.53
2019-02-28T14:10:24.530Z,41.20
2019-02-28T14:12:58.875Z,38.30
2019-02-28T14:15:32.498Z,36.47
2019-02-28T14:18:00.142Z,36.67
2019-02-28T14:20:27.727Z,35.70
2019-02-28T14:23:00.167Z,33.43
2019-02-28T14:25:27.445Z,33.03
2019-02-28T14:27:56.909Z,30.87
2019-02-28T14:30:24.351Z,31.57
2019-02-28T14:32:51.618Z,31.80
2019-02-28T14:35:24.401Z,30.80
2019-02-28T14:37:55.861Z,32.40
2019-02-28T14:40:21.099Z,37.43
2019-02-28T14:42:49.938Z,39.83
2019-02-28T14:45:18.753Z,41.87
2019-02-28T14:48:00.857Z,41.70
2019-02-28T14:50:28.306Z,41.73
2019-02-28T14:52:55.852Z,44.50
2019-02-28T14:55:23.167Z,43.23
2019-02-28T14:57:55.336Z,42.77
2019-02-28T15:00:26.866Z,43.80
2019-02-28T15:02:54.187Z,43.60
2019-02-28T15:05:22.160Z,42.23
2019-02-28T15:07:49.395Z,43.40
2019-02-28T15:10:19.279Z,42.67
2019-02-28T15:12:47.491Z,46.83
2019-02-28T15:15:18.034Z,43.40
2019-02-28T15:17:46.986Z,43.43
2019-02-28T15:20:20.753Z,44.95
2019-02-28T15:22:47.947Z,40.65
2019-02-28T15:25:18.544Z,41.87
2019-02-28T15:27:45.460Z,35.30
2019-02-28T15:30:22.681Z,36.90
2019-02-28T15:32:50.772Z,34.80
2019-02-28T15:35:19.707Z,33.40
2019-02-28T15:37:47.018Z,35.00
2019-02-28T15:40:27.419Z,33.37
2019-02-28T15:42:55.422Z,36.30
2019-02-28T15:45:23.787Z,37.17
2019-02-28T15:47:55.409Z,34.10
2019-02-28T15:50:34.783Z,34.95
2019-02-28T15:53:04.936Z,35.25
2019-02-28T15:55:35.489Z,34.03
2019-02-28T15:58:06.000Z,31.87
2019-02-28T16:00:34.443Z,31.82
2019-02-28T16:03:24.418Z,28.63
2019-02-28T16:05:51.989Z,28.20
2019-02-28T16:08:20.236Z,27.10
2019-02-28T16:10:53.208Z,26.77
2019-02-28T16:13:19.389Z,27.83
2019-02-28T16:15:49.947Z,26.35
2019-02-28T16:18:16.448Z,27.17
2019-02-28T16:20:44.334Z,25.50
2019-02-28T16:23:11.665Z,24.40
2019-02-28T16:25:39.219Z,25.67
2019-02-28T16:28:07.726Z,25.82
2019-02-28T16:30:38.295Z,25.30
2019-02-28T16:33:05.999Z,24.67
2019-02-28T16:35:33.210Z,24.10
2019-02-28T16:38:00.923Z,23.53
2019-02-28T16:40:28.690Z,23.57
2019-02-28T16:42:56.747Z,23.67
2019-02-28T16:45:33.733Z,23.85
2019-02-28T16:48:07.211Z,23.05
2019-02-28T16:50:36.418Z,20.88
2019-02-28T16:53:04.432Z,21.60
2019-02-28T16:55:32.080Z,21.48
2019-02-28T16:58:00.235Z,20.23
2019-02-28T17:00:27.773Z,21.00
2019-02-28T17:02:56.464Z,22.70
2019-02-28T17:05:28.055Z,19.77
2019-02-28T17:07:53.760Z,20.70
2019-02-28T17:10:26.225Z,18.50
2019-02-28T17:13:13.037Z,19.02
2019-02-28T17:15:55.888Z,19.43
2019-02-28T17:18:22.586Z,18.65
2019-02-28T17:20:50.503Z,19.80
2019-02-28T17:23:19.003Z,18.47
2019-02-28T17:25:46.927Z,17.80
2019-02-28T17:28:36.753Z,16.10
2019-02-28T17:31:24.339Z,18.27
2019-02-28T17:33:52.189Z,17.50
2019-02-28T17:36:24.811Z,17.00
2019-02-28T17:38:53.985Z,17.35
2019-02-28T17:41:22.142Z,15.28
2019-02-28T17:44:30.118Z,15.28
2019-02-28T17:47:01.540Z,13.10
2019-02-28T17:50:08.929Z,12.28
2019-02-28T17:52:53.210Z,11.40
2019-02-28T17:55:59.201Z,10.93
2019-02-28T17:59:08.435Z,10.10
2019-02-28T18:02:17.170Z,10.17
2019-02-28T18:05:42.353Z,10.18
2019-02-28T18:08:38.542Z,9.60
2019-02-28T18:11:42.654Z,9.08
2019-02-28T18:14:51.368Z,9.95
2019-02-28T18:17:56.178Z,10.35
2019-02-28T18:21:07.142Z,9.45
2019-02-28T18:24:20.264Z,9.15
2019-02-28T18:27:28.062Z,9.90
2019-02-28T18:30:27.584Z,9.10
2019-02-28T18:32:56.250Z,9.58
2019-02-28T18:35:24.632Z,9.88
2019-02-28T18:37:53.837Z,10.35
2019-02-28T18:40:22.658Z,11.15
2019-02-28T18:42:53.624Z,11.88
2019-02-28T18:45:22.578Z,10.93
2019-02-28T18:47:51.891Z,10.23
2019-02-28T18:50:20.654Z,10.55
2019-02-28T18:52:49.211Z,8.60
2019-02-28T18:55:18.003Z,9.80
2019-02-28T18:57:46.424Z,10.00
2019-02-28T19:00:19.323Z,9.00
2019-02-28T19:02:48.047Z,9.90
2019-02-28T19:05:16.996Z,10.00
2019-02-28T19:07:46.657Z,9.90
2019-02-28T19:10:15.559Z,8.73
2019-02-28T19:12:44.886Z,7.90
2019-02-28T19:15:13.573Z,9.15
2019-02-28T19:17:41.278Z,8.98
2019-02-28T19:20:10.472Z,8.23
2019-02-28T19:22:39.122Z,8.73
2019-02-28T19:25:08.018Z,8.35
2019-02-28T19:27:37.223Z,8.00
2019-02-28T19:30:07.823Z,8.60
2019-02-28T19:32:36.523Z,8.10
2019-02-28T19:35:05.246Z,8.93
2019-02-28T19:37:33.538Z,8.78
2019-02-28T19:40:03.979Z,8.45
2019-02-28T19:42:31.579Z,8.95
2019-02-28T19:44:59.296Z,8.68
2019-02-28T19:47:27.927Z,8.03
2019-02-28T19:49:56.475Z,8.78
2019-02-28T19:52:25.741Z,9.68
2019-02-28T19:54:53.503Z,8.35
2019-02-28T19:57:20.826Z,9.00
2019-02-28T19:59:49.307Z,10.03
2019-02-28T20:02:18.120Z,8.05
2019-02-28T20:04:46.467Z,9.83
2019-02-28T20:07:14.949Z,8.23
2019-02-28T20:09:43.250Z,9.10
2019-02-28T20:12:15.243Z,8.55
2019-02-28T20:14:45.369Z,9.03
2019-02-28T20:17:15.522Z,7.10
2019-02-28T20:19:42.731Z,6.30
2019-02-28T20:22:10.001Z,7.58
2019-02-28T20:24:37.369Z,7.87
2019-02-28T20:27:04.783Z,8.10
2019-02-28T20:29:31.911Z,7.53
2019-02-28T20:31:59.291Z,7.17
2019-02-28T20:34:29.159Z,7.58
2019-02-28T20:36:58.142Z,8.95
2019-02-28T20:39:26.852Z,8.15
2019-02-28T20:41:56.589Z,8.88
2019-02-28T20:44:25.183Z,9.25
2019-02-28T20:46:53.623Z,9.35
2019-02-28T20:49:22.374Z,10.08
2019-02-28T20:51:55.085Z,9.53
2019-02-28T20:54:20.370Z,9.65
2019-02-28T20:56:48.533Z,10.45
2019-02-28T20:59:16.886Z,9.38
2019-02-28T21:01:45.184Z,9.65
2019-02-28T21:04:12.426Z,10.30
2019-02-28T21:06:40.630Z,10.03
2019-02-28T21:09:09.743Z,10.75
2019-02-28T21:11:38.031Z,10.85
2019-02-28T21:14:06.462Z,10.70
2019-02-28T21:16:34.661Z,10.90
2019-02-28T21:19:02.858Z,11.08
2019-02-28T21:21:31.142Z,11.30
2019-02-28T21:23:59.447Z,10.60
2019-02-28T21:26:27.740Z,10.88
2019-02-28T21:28:56.201Z,11.25
2019-02-28T21:31:24.486Z,10.98
2019-02-28T21:33:52.811Z,11.22
2019-02-28T21:36:21.390Z,10.80
2019-02-28T21:38:49.000Z,10.48
2019-02-28T21:41:17.579Z,11.03
2019-02-28T21:43:46.193Z,10.45
2019-02-28T21:46:14.639Z,11.08
2019-02-28T21:48:42.897Z,10.00
2019-02-28T21:51:11.755Z,9.75
2019-02-28T21:53:39.244Z,9.70
2019-02-28T21:56:07.622Z,10.38
2019-02-28T21:58:36.116Z,9.38
2019-02-28T22:01:04.586Z,9.55
2019-02-28T22:03:33.059Z,8.70
2019-02-28T22:06:01.631Z,8.58
2019-02-28T22:08:30.641Z,8.98
2019-02-28T22:10:58.760Z,7.83
2019-02-28T22:13:27.324Z,8.35
2019-02-28T22:15:56.198Z,8.50
2019-02-28T22:18:23.689Z,8.50
2019-02-28T22:20:52.530Z,9.60
2019-02-28T22:23:21.083Z,9.65
2019-02-28T22:25:48.334Z,8.53
2019-02-28T22:28:16.530Z,8.90
2019-02-28T22:31:04.488Z,10.08
2019-02-28T22:33:43.122Z,11.75
2019-02-28T22:36:13.869Z,11.15
2019-02-28T22:38:42.163Z,11.03
2019-02-28T22:41:10.446Z,10.08
2019-02-28T22:43:38.853Z,11.05
2019-02-28T22:46:07.133Z,11.28
2019-02-28T22:48:35.315Z,11.97
2019-02-28T22:51:03.667Z,12.40
2019-02-28T22:53:30.738Z,11.88
2019-02-28T22:55:58.963Z,11.90
2019-02-28T22:58:27.190Z,11.65
2019-02-28T23:01:03.162Z,11.55
2019-02-28T23:03:32.211Z,14.98
2019-02-28T23:06:00.770Z,15.00
2019-02-28T23:08:28.942Z,14.33
2019-02-28T23:10:57.148Z,13.98
2019-02-28T23:13:25.482Z,14.47
2019-02-28T23:15:53.738Z,16.42
2019-02-28T23:18:21.871Z,14.20
2019-02-28T23:20:50.142Z,14.70
2019-02-28T23:23:18.264Z,14.30
2019-02-28T23:25:46.594Z,16.32
2019-02-28T23:28:25.114Z,16.37
2019-02-28T23:31:13.718Z,15.70
2019-02-28T23:33:42.590Z,16.23
2019-02-28T23:36:11.296Z,15.43
2019-02-28T23:38:39.847Z,16.00
2019-02-28T23:41:08.266Z,14.93
2019-02-28T23:43:36.454Z,15.95
2019-02-28T23:46:04.867Z,15.55
2019-02-28T23:48:33.094Z,15.78
2019-02-28T23:51:01.680Z,15.13
2019-02-28T23:53:30.283Z,17.05
2019-02-28T23:55:57.810Z,16.32
2019-02-28T23:58:26.003Z,14.87
